全部
AFB Langebaanweg SAAF Airport (Langebaan) SDB 天氣
|
Langebaan (SDB / FALW)
晴天
微風 |
|
13 °C |
There is no TAF data available at SDB or any nearby airports.
SDB近期METAR歷史資料
| Date | Time (SAST) | Flight Rules | Wind Dir. | Speed | Type | Height AGL (ft) | Visibility | Temp (°C) | Temp (°F) | Dew Point (°C) | Dew Point (°F) | Rel. Humid. | Pressure | Density Altitude | Remarks |
|---|---|---|---|---|---|---|---|---|---|---|---|---|---|---|---|
| gap in available data | |||||||||||||||
| 04-五月 | 07:00 | n/a | 70° | 4 kt | Missing | 13° | 55° | 13° | 55° | 100% | 1013 mb | -126 ft | Wind gusting to 14 KT | ||
| 04-五月 | 06:00 | n/a | 140° | 4 kt | Missing | 15° | 59° | 15° | 59° | 100% | 1012 mb | 144 ft | Wind gusting to 17 KT | ||
| 04-五月 | 05:00 | n/a | 160° | 11 kt | Missing | 15° | 59° | 14° | 57° | 94% | 1012 mb | 144 ft | Wind gusting to 21 KT | ||
| 04-五月 | 04:00 | n/a | 170° | 13 kt | Missing | 15° | 59° | 14° | 57° | 94% | 1012 mb | 144 ft | |||
| 04-五月 | 03:00 | n/a | 170° | 14 kt | Missing | 15° | 59° | 14° | 57° | 94% | 1012 mb | 144 ft | |||
| 04-五月 | 02:00 | n/a | 180° | 13 kt | Missing | 15° | 59° | 14° | 57° | 94% | 1012 mb | 144 ft | |||
| 04-五月 | 01:00 | n/a | 170° | 12 kt | Missing | 15° | 59° | 15° | 59° | 100% | 1013 mb | 114 ft | |||
| 04-五月 | 00:00 | n/a | 180° | 13 kt | Missing | 15° | 59° | 15° | 59° | 100% | 1013 mb | 114 ft | |||
| 03-五月 | 23:00 | n/a | 180° | 11 kt | Missing | 15° | 59° | 15° | 59° | 100% | 1014 mb | 85 ft | |||
| 03-五月 | 22:00 | n/a | 180° | 10 kt | Missing | 15° | 59° | 15° | 59° | 100% | 1014 mb | 85 ft | |||
| 03-五月 | 21:00 | n/a | 190° | 9 kt | Missing | 16° | 60° | 15° | 59° | 94% | 1014 mb | 205 ft | |||
| 03-五月 | 20:00 | n/a | 180° | 7 kt | Missing | 16° | 60° | 16° | 60° | 100% | 1014 mb | 205 ft | |||
| 03-五月 | 19:00 | n/a | 180° | 6 kt | Missing | 17° | 62° | 16° | 60° | 94% | 1013 mb | 354 ft | |||
| 03-五月 | 18:00 | n/a | 130° | 6 kt | Missing | 18° | 64° | 16° | 60° | 88% | 1013 mb | 474 ft | |||
| 03-五月 | 17:00 | n/a | 120° | 6 kt | Missing | 18° | 64° | 16° | 60° | 88% | 1013 mb | 474 ft | |||
| 03-五月 | 16:00 | n/a | 110° | 7 kt | Missing | 20° | 68° | 16° | 60° | 78% | 1013 mb | 714 ft | |||
| 03-五月 | 15:00 | n/a | 120° | 5 kt | Missing | 23° | 73° | 15° | 59° | 61% | 1012 mb | 1,104 ft | |||
| 03-五月 | 14:00 | n/a | 100° | 6 kt | Missing | 22° | 71° | 14° | 57° | 60% | 1013 mb | 954 ft | |||
| 03-五月 | 13:00 | n/a | 110° | 6 kt | Missing | 23° | 73° | 14° | 57° | 57% | 1014 mb | 1,045 ft | |||
| 03-五月 | 12:00 | n/a | 130° | 4 kt | Missing | 20° | 68° | 15° | 59° | 73% | 1014 mb | 685 ft | |||
| 03-五月 | 11:00 | n/a | 110° | 2 kt | Missing | 18° | 64° | 15° | 59° | 83% | 1015 mb | 415 ft | |||
| 03-五月 | 10:00 | n/a | 110° | 2 kt | Missing | 15° | 59° | 14° | 57° | 94% | 1015 mb | 55 ft | |||
| 03-五月 | 09:00 | n/a | 170° | 1 kt | Missing | 14° | 57° | 13° | 55° | 94% | 1015 mb | -65 ft | |||
| 03-五月 | 08:00 | n/a | Calm | Missing | 11° | 51° | 11° | 51° | 100% | 1015 mb | -425 ft | ||||
登入
| 您的瀏覽器不支援. 升級您的瀏覽器 |
